createdAt,value
2023-05-14T00:00:52.182Z,97607.31
2023-05-14T00:03:20.665Z,97615.25
2023-05-14T00:05:49.387Z,97614.44
2023-05-14T00:08:17.828Z,97608.94
2023-05-14T00:10:46.365Z,97602.63
2023-05-14T00:13:14.850Z,97603.44
2023-05-14T00:15:44.655Z,97597.91
2023-05-14T00:18:13.360Z,97603.44
2023-05-14T00:20:41.972Z,97595.16
2023-05-14T00:23:10.714Z,97590.78
2023-05-14T00:25:39.166Z,97596.28
2023-05-14T00:28:07.587Z,97586.88
2023-05-14T00:30:36.023Z,97584.94
2023-05-14T00:33:05.851Z,97589.66
2023-05-14T00:35:35.303Z,97587.69
2023-05-14T00:38:04.187Z,97580.56
2023-05-14T00:40:32.665Z,97573.44
2023-05-14T00:43:01.218Z,97574.22
2023-05-14T00:45:29.989Z,97567.09
2023-05-14T00:47:58.594Z,97575.88
2023-05-14T00:50:28.674Z,97573.09
2023-05-14T00:52:57.107Z,97568.72
2023-05-14T00:55:25.942Z,97571.47
2023-05-14T00:57:55.907Z,97574.22
2023-05-14T01:00:24.686Z,97570.66
2023-05-14T01:02:53.530Z,97570.66
2023-05-14T01:05:25.392Z,97574.22
2023-05-14T01:08:05.286Z,97578.94
2023-05-14T01:10:46.833Z,97574.22
2023-05-14T01:13:20.992Z,97577.00
2023-05-14T01:15:50.548Z,97578.13
2023-05-14T01:18:20.036Z,97574.22
2023-05-14T01:20:52.128Z,97575.38
2023-05-14T01:23:22.123Z,97576.50
2023-05-14T01:25:50.644Z,97572.59
2023-05-14T01:28:21.180Z,97566.28
2023-05-14T01:30:57.956Z,97566.28
2023-05-14T01:33:30.396Z,97569.84
2023-05-14T01:35:59.370Z,97569.84
2023-05-14T01:38:31.696Z,97565.47
2023-05-14T01:41:01.051Z,97566.28
2023-05-14T01:43:31.275Z,97561.59
2023-05-14T01:45:59.866Z,97567.09
2023-05-14T01:48:29.981Z,97570.97
2023-05-14T01:50:58.622Z,97569.03
2023-05-14T01:53:27.364Z,97566.28
2023-05-14T01:55:57.167Z,97565.47
2023-05-14T01:58:25.865Z,97560.78
2023-05-14T02:00:54.706Z,97564.66
2023-05-14T02:03:23.192Z,97559.97
2023-05-14T02:05:51.997Z,97563.84
2023-05-14T02:08:20.792Z,97552.81
2023-05-14T02:10:49.907Z,97555.56
2023-05-14T02:13:20.430Z,97554.75
2023-05-14T02:15:48.898Z,97553.63
2023-05-14T02:18:17.356Z,97552.81
2023-05-14T02:20:45.747Z,97553.63
2023-05-14T02:23:14.192Z,97557.53
2023-05-14T02:25:45.107Z,97553.63
2023-05-14T02:28:13.491Z,97557.53
2023-05-14T02:30:43.305Z,97556.72
2023-05-14T02:33:11.901Z,97556.72
2023-05-14T02:35:40.567Z,97558.34
2023-05-14T02:38:09.032Z,97558.34
2023-05-14T02:40:38.045Z,97555.91
2023-05-14T02:43:06.722Z,97556.72
2023-05-14T02:45:35.195Z,97563.03
2023-05-14T02:48:05.106Z,97563.84
2023-05-14T02:50:33.640Z,97558.66
2023-05-14T02:53:02.052Z,97551.19
2023-05-14T02:55:30.842Z,97553.94
2023-05-14T02:57:59.260Z,97549.56
2023-05-14T03:00:27.669Z,97545.69
2023-05-14T03:02:58.245Z,97548.75
2023-05-14T03:05:28.679Z,97557.84
2023-05-14T03:07:57.178Z,97552.31
2023-05-14T03:10:25.947Z,97559.47
2023-05-14T03:12:54.689Z,97558.97
2023-05-14T03:15:23.143Z,97557.03
2023-05-14T03:17:51.785Z,97555.41
2023-05-14T03:20:20.465Z,97549.56
2023-05-14T03:22:50.427Z,97550.69
2023-05-14T03:25:18.948Z,97553.47
2023-05-14T03:27:48.637Z,97557.84
2023-05-14T03:30:17.237Z,97546.00
2023-05-14T03:32:45.905Z,97545.19
2023-05-14T03:35:14.651Z,97547.94
2023-05-14T03:37:43.190Z,97551.84
2023-05-14T03:40:13.733Z,97553.47
2023-05-14T03:42:42.122Z,97553.78
2023-05-14T03:45:12.178Z,97552.31
2023-05-14T03:47:41.032Z,97552.66
2023-05-14T03:50:10.166Z,97547.94
2023-05-14T03:52:39.017Z,97546.31
2023-05-14T03:55:08.435Z,97547.94
2023-05-14T03:57:39.411Z,97547.94
2023-05-14T04:00:08.997Z,97547.94
2023-05-14T04:02:45.503Z,97546.00
2023-05-14T04:05:14.041Z,97551.84
2023-05-14T04:07:42.502Z,97547.13
2023-05-14T04:10:11.426Z,97553.47
2023-05-14T04:12:41.232Z,97547.94
2023-05-14T04:15:11.050Z,97554.59
2023-05-14T04:17:39.536Z,97554.59
2023-05-14T04:20:09.121Z,97547.94
2023-05-14T04:22:37.562Z,97552.66
2023-05-14T04:25:06.746Z,97550.69
2023-05-14T04:27:35.295Z,97552.31
2023-05-14T04:30:06.475Z,97543.56
2023-05-14T04:32:34.871Z,97540.00
2023-05-14T04:35:04.213Z,97546.31
2023-05-14T04:37:32.965Z,97542.75
2023-05-14T04:40:01.467Z,97545.50
2023-05-14T04:42:29.875Z,97541.94
2023-05-14T04:44:58.690Z,97546.31
2023-05-14T04:47:28.474Z,97544.69
2023-05-14T04:49:57.805Z,97540.00
2023-05-14T04:52:26.479Z,97546.31
2023-05-14T04:54:55.138Z,97548.25
2023-05-14T04:57:23.537Z,97553.78
2023-05-14T04:59:51.929Z,97556.53
2023-05-14T05:02:20.361Z,97555.72
2023-05-14T05:04:50.103Z,97554.91
2023-05-14T05:07:18.591Z,97550.22
2023-05-14T05:09:46.922Z,97543.06
2023-05-14T05:12:15.395Z,97549.06
2023-05-14T05:14:43.848Z,97548.56
2023-05-14T05:17:12.222Z,97539.50
2023-05-14T05:19:44.037Z,97543.06
2023-05-14T05:22:14.169Z,97544.69
2023-05-14T05:24:42.635Z,97548.56
2023-05-14T05:27:11.060Z,97543.06
2023-05-14T05:29:39.531Z,97541.44
2023-05-14T05:32:08.857Z,97544.69
2023-05-14T05:34:37.387Z,97550.22
2023-05-14T05:37:06.114Z,97550.22
2023-05-14T05:39:36.099Z,97546.94
2023-05-14T05:42:06.972Z,97542.25
2023-05-14T05:44:35.538Z,97541.44
2023-05-14T05:47:04.081Z,97544.19
2023-05-14T05:49:32.523Z,97544.50
2023-05-14T05:52:01.049Z,97540.44
2023-05-14T05:54:29.550Z,97540.28
2023-05-14T05:56:59.504Z,97538.97
2023-05-14T05:59:28.000Z,97540.41
2023-05-14T06:01:56.508Z,97541.53
2023-05-14T06:04:24.990Z,97543.47
2023-05-14T06:06:53.468Z,97540.72
2023-05-14T06:09:22.152Z,97538.47
2023-05-14T06:11:50.717Z,97545.59
2023-05-14T06:14:20.509Z,97533.47
2023-05-14T06:16:49.032Z,97541.72
2023-05-14T06:19:18.424Z,97534.59
2023-05-14T06:21:46.895Z,97542.34
2023-05-14T06:24:16.422Z,97537.47
2023-05-14T06:26:44.839Z,97545.75
2023-05-14T06:29:13.284Z,97542.66
2023-05-14T06:31:43.434Z,97535.22
2023-05-14T06:34:12.023Z,97537.97
2023-05-14T06:36:40.428Z,97534.41
2023-05-14T06:39:08.871Z,97541.84
2023-05-14T06:41:37.254Z,97539.75
2023-05-14T06:44:06.026Z,97542.00
2023-05-14T06:46:38.791Z,97543.63
2023-05-14T06:49:22.650Z,97540.88
2023-05-14T06:51:51.113Z,97538.59
2023-05-14T06:54:20.436Z,97544.63
2023-05-14T06:56:48.953Z,97540.72
2023-05-14T06:59:17.459Z,97544.78
2023-05-14T07:01:45.957Z,97540.09
2023-05-14T07:04:14.539Z,97542.03
2023-05-14T07:06:44.414Z,97546.09
2023-05-14T07:09:13.279Z,97544.97
2023-05-14T07:11:41.794Z,97546.91
2023-05-14T07:14:10.314Z,97541.91
2023-05-14T07:16:38.839Z,97539.63
2023-05-14T07:19:07.426Z,97540.44
2023-05-14T07:21:35.943Z,97542.06
2023-05-14T07:24:06.736Z,97541.25
2023-05-14T07:26:35.277Z,97542.88
2023-05-14T07:29:03.752Z,97538.19
2023-05-14T07:31:32.257Z,97535.13
2023-05-14T07:34:00.777Z,97532.03
2023-05-14T07:36:29.293Z,97533.66
2023-05-14T07:38:57.996Z,97542.75
2023-05-14T07:41:27.869Z,97535.28
2023-05-14T07:43:56.403Z,97533.03
2023-05-14T07:46:25.803Z,97538.53
2023-05-14T07:48:54.316Z,97530.28
2023-05-14T07:51:23.052Z,97529.16
2023-05-14T07:53:51.477Z,97525.25
2023-05-14T07:56:19.983Z,97524.44
2023-05-14T07:58:49.856Z,97530.44
2023-05-14T08:01:18.505Z,97531.59
2023-05-14T08:03:47.657Z,97528.50
2023-05-14T08:06:16.282Z,97524.63
2023-05-14T08:08:44.723Z,97526.56
2023-05-14T08:11:13.292Z,97532.09
2023-05-14T08:13:41.873Z,97526.56
2023-05-14T08:16:11.665Z,97529.31
2023-05-14T08:18:40.199Z,97530.13
2023-05-14T08:21:08.788Z,97533.22
2023-05-14T08:23:37.335Z,97528.50
2023-05-14T08:26:06.171Z,97527.38
2023-05-14T08:28:34.583Z,97521.53
2023-05-14T08:31:03.099Z,97522.03
2023-05-14T08:33:33.089Z,97517.03
2023-05-14T08:36:01.620Z,97519.44
2023-05-14T08:38:30.085Z,97519.44
2023-05-14T08:40:59.766Z,97515.53
2023-05-14T08:43:37.004Z,97519.91
2023-05-14T08:46:07.015Z,97513.59
2023-05-14T08:48:37.749Z,97515.22
2023-05-14T08:51:07.899Z,97517.47
2023-05-14T08:53:38.151Z,97522.19
2023-05-14T08:56:08.106Z,97512.31
2023-05-14T08:58:36.635Z,97510.34
2023-05-14T09:01:05.702Z,97506.00
2023-05-14T09:03:36.199Z,97507.28
2023-05-14T09:06:06.961Z,97508.09
2023-05-14T09:08:36.339Z,97515.53
2023-05-14T09:11:04.862Z,97500.63
2023-05-14T09:13:33.373Z,97502.25
2023-05-14T09:16:02.108Z,97508.91
2023-05-14T09:18:30.784Z,97507.28
2023-05-14T09:21:01.293Z,97504.50
2023-05-14T09:23:33.377Z,97499.50
2023-05-14T09:26:05.922Z,97491.22
2023-05-14T09:28:34.492Z,97490.91
2023-05-14T09:31:03.893Z,97492.84
2023-05-14T09:33:32.826Z,97487.81
2023-05-14T09:36:03.324Z,97495.28
2023-05-14T09:38:32.327Z,97490.59
2023-05-14T09:41:01.606Z,97494.97
2023-05-14T09:43:30.120Z,97493.81
2023-05-14T09:45:58.570Z,97483.63
2023-05-14T09:48:27.313Z,97487.19
2023-05-14T09:50:56.142Z,97477.28
2023-05-14T09:53:26.085Z,97475.03
2023-05-14T09:55:54.776Z,97473.88
2023-05-14T09:58:23.299Z,97470.31
2023-05-14T10:00:52.814Z,97465.63
2023-05-14T10:03:22.990Z,97468.88
2023-05-14T10:05:52.187Z,97463.66
2023-05-14T10:08:25.471Z,97461.72
2023-05-14T10:10:56.909Z,97457.84
2023-05-14T10:13:29.775Z,97453.94
2023-05-14T10:16:06.610Z,97456.69
2023-05-14T10:18:40.809Z,97453.94
2023-05-14T10:21:11.560Z,97453.94
2023-05-14T10:23:40.634Z,97443.09
2023-05-14T10:26:11.912Z,97445.03
2023-05-14T10:28:40.802Z,97441.13
2023-05-14T10:31:10.961Z,97437.91
2023-05-14T10:33:50.179Z,97440.66
2023-05-14T10:36:19.406Z,97440.66
2023-05-14T10:38:48.046Z,97440.66
2023-05-14T10:41:18.548Z,97443.41
2023-05-14T10:43:47.022Z,97440.66
2023-05-14T10:46:15.846Z,97437.09
2023-05-14T10:48:46.681Z,97437.09
2023-05-14T10:51:17.596Z,97443.72
2023-05-14T10:53:46.385Z,97436.28
2023-05-14T10:56:15.566Z,97435.13
2023-05-14T10:58:46.241Z,97429.63
2023-05-14T11:01:15.001Z,97425.72
2023-05-14T11:03:46.191Z,97427.34
2023-05-14T11:06:17.193Z,97430.13
2023-05-14T11:08:46.529Z,97418.75
2023-05-14T11:11:15.272Z,97417.94
2023-05-14T11:13:45.946Z,97412.44
2023-05-14T11:18:54.916Z,97407.56
2023-05-14T11:21:23.504Z,97396.53
2023-05-14T11:23:51.939Z,97402.03
2023-05-14T11:26:21.621Z,97397.50
2023-05-14T11:28:51.754Z,97394.75
2023-05-14T11:31:20.306Z,97394.75
2023-05-14T11:33:48.790Z,97385.66
2023-05-14T11:36:17.353Z,97400.28
2023-05-14T11:38:51.385Z,97386.47
2023-05-14T11:41:21.624Z,97398.66
2023-05-14T11:43:51.659Z,97383.25
2023-05-14T11:46:20.632Z,97388.75
2023-05-14T11:48:49.210Z,97376.41
2023-05-14T11:51:17.693Z,97380.00
2023-05-14T11:53:47.396Z,97376.09
2023-05-14T11:56:15.956Z,97372.84
2023-05-14T11:58:49.121Z,97372.03
2023-05-14T12:01:18.992Z,97372.03
2023-05-14T12:03:47.724Z,97370.91
2023-05-14T12:06:16.274Z,97367.34
2023-05-14T12:08:44.685Z,97361.81
2023-05-14T12:11:13.115Z,97365.72
2023-05-14T12:13:41.662Z,97359.41
2023-05-14T12:16:10.144Z,97358.59
2023-05-14T12:18:40.018Z,97360.19
2023-05-14T12:21:09.108Z,97354.69
2023-05-14T12:23:40.083Z,97357.44
2023-05-14T12:26:10.120Z,97349.50
2023-05-14T12:28:43.246Z,97353.06
2023-05-14T12:31:12.357Z,97347.56
2023-05-14T12:33:42.192Z,97346.41
2023-05-14T12:36:21.183Z,97336.53
2023-05-14T12:38:50.775Z,97341.22
2023-05-14T12:41:19.266Z,97342.03
2023-05-14T12:43:49.697Z,97326.63
2023-05-14T12:46:18.241Z,97329.38
2023-05-14T12:48:48.067Z,97323.88
2023-05-14T12:51:16.537Z,97322.25
2023-05-14T12:53:44.994Z,97327.78
2023-05-14T12:56:14.726Z,97325.81
2023-05-14T12:58:43.188Z,97318.38
2023-05-14T13:01:11.699Z,97324.38
2023-05-14T13:03:40.218Z,97319.34
2023-05-14T13:06:10.037Z,97310.72
2023-05-14T13:08:38.496Z,97307.66
2023-05-14T13:11:07.154Z,97307.66
2023-05-14T13:13:35.730Z,97299.38
2023-05-14T13:16:04.658Z,97297.44
2023-05-14T13:18:33.122Z,97288.84
2023-05-14T13:21:04.280Z,97291.59
2023-05-14T13:23:34.066Z,97294.84
2023-05-14T13:26:02.628Z,97292.06
2023-05-14T13:28:31.115Z,97284.28
2023-05-14T13:31:08.109Z,97281.84
2023-05-14T13:33:37.683Z,97285.44
2023-05-14T13:36:06.818Z,97281.03
2023-05-14T13:38:36.689Z,97279.91
2023-05-14T13:41:05.655Z,97286.56
2023-05-14T13:43:35.616Z,97276.66
2023-05-14T13:46:06.035Z,97275.53
2023-05-14T13:48:35.818Z,97279.44
2023-05-14T13:51:04.646Z,97273.91
2023-05-14T13:53:33.121Z,97275.53
2023-05-14T13:56:03.027Z,97275.53
2023-05-14T13:58:31.536Z,97276.34
2023-05-14T14:01:00.096Z,97270.03
2023-05-14T14:03:28.648Z,97265.31
2023-05-14T14:05:57.123Z,97267.25
2023-05-14T14:08:25.570Z,97267.25
2023-05-14T14:10:55.693Z,97256.22
2023-05-14T14:13:25.934Z,97264.19
2023-05-14T14:15:54.418Z,97260.59
2023-05-14T14:18:22.944Z,97246.00
2023-05-14T14:20:51.652Z,97247.97
2023-05-14T14:23:20.282Z,97247.97
2023-05-14T14:25:48.864Z,97243.25
2023-05-14T14:28:17.414Z,97248.78
2023-05-14T14:30:47.261Z,97241.63
2023-05-14T14:33:15.834Z,97247.97
2023-05-14T14:35:44.400Z,97248.78
2023-05-14T14:38:12.807Z,97244.06
2023-05-14T14:40:41.363Z,97244.88
2023-05-14T14:43:09.966Z,97242.78
2023-05-14T14:45:38.578Z,97250.22
2023-05-14T14:48:28.778Z,97247.00
2023-05-14T14:50:57.328Z,97244.25
2023-05-14T14:53:25.876Z,97239.84
2023-05-14T14:55:54.984Z,97235.00
2023-05-14T14:58:23.591Z,97238.88
2023-05-14T15:00:54.342Z,97240.84
2023-05-14T15:03:23.454Z,97241.16
2023-05-14T15:05:54.109Z,97241.16
2023-05-14T15:08:26.411Z,97238.41
2023-05-14T15:10:55.212Z,97235.66
2023-05-14T15:13:24.493Z,97234.03
2023-05-14T15:15:53.328Z,97239.53
2023-05-14T15:18:21.959Z,97231.59
2023-05-14T15:20:50.625Z,97242.63
2023-05-14T15:23:20.457Z,97241.00
2023-05-14T15:25:49.432Z,97234.69
2023-05-14T15:28:18.151Z,97239.38
2023-05-14T15:30:48.592Z,97247.34
2023-05-14T15:33:19.022Z,97241.81
2023-05-14T15:35:47.544Z,97245.72
2023-05-14T15:38:16.096Z,97247.66
2023-05-14T15:40:45.912Z,97249.59
2023-05-14T15:43:14.389Z,97252.38
2023-05-14T15:45:45.065Z,97258.19
2023-05-14T15:48:13.641Z,97248.31
2023-05-14T15:50:42.344Z,97249.44
2023-05-14T15:53:10.771Z,97237.94
2023-05-14T15:55:39.298Z,97243.44
2023-05-14T15:58:09.171Z,97239.06
2023-05-14T16:00:37.650Z,97247.69
2023-05-14T16:03:06.218Z,97244.94
2023-05-14T16:05:35.230Z,97238.13
2023-05-14T16:08:03.798Z,97242.84
2023-05-14T16:10:32.444Z,97242.03
2023-05-14T16:13:01.163Z,97239.59
2023-05-14T16:15:31.375Z,97238.94
2023-05-14T16:18:01.160Z,97246.09
2023-05-14T16:20:29.678Z,97247.34
2023-05-14T16:22:58.232Z,97239.88
2023-05-14T16:25:26.667Z,97243.13
2023-05-14T16:27:55.477Z,97240.84
2023-05-14T16:30:24.194Z,97236.97
2023-05-14T16:32:54.257Z,97244.91
2023-05-14T16:35:22.864Z,97237.13
2023-05-14T16:37:51.389Z,97243.44
2023-05-14T16:40:20.102Z,97235.97
2023-05-14T16:42:49.449Z,97241.50
2023-05-14T16:45:18.082Z,97242.78
2023-05-14T16:47:46.513Z,97241.97
2023-05-14T16:50:16.338Z,97246.69
2023-05-14T16:52:44.820Z,97235.66
2023-05-14T16:55:13.296Z,97238.88
2023-05-14T16:57:43.659Z,97234.50
2023-05-14T17:00:13.402Z,97234.50
2023-05-14T17:02:42.143Z,97233.38
2023-05-14T17:05:10.985Z,97237.75
2023-05-14T17:07:41.207Z,97235.00
2023-05-14T17:10:10.950Z,97240.50
2023-05-14T17:12:39.442Z,97231.09
2023-05-14T17:15:09.310Z,97238.56
2023-05-14T17:17:38.080Z,97241.00
2023-05-14T17:20:08.046Z,97248.47
2023-05-14T17:22:36.443Z,97238.25
2023-05-14T17:25:07.324Z,97242.13
2023-05-14T17:27:36.353Z,97226.72
2023-05-14T17:30:06.209Z,97222.34
2023-05-14T17:32:36.039Z,97233.38
2023-05-14T17:35:05.271Z,97233.38
2023-05-14T17:37:36.481Z,97233.38
2023-05-14T17:40:07.654Z,97230.13
2023-05-14T17:42:36.163Z,97230.47
2023-05-14T17:45:05.033Z,97230.13
2023-05-14T17:47:33.939Z,97239.53
2023-05-14T17:50:02.364Z,97240.34
2023-05-14T17:52:30.863Z,97245.06
2023-05-14T17:54:59.326Z,97243.44
2023-05-14T17:57:29.223Z,97244.56
2023-05-14T17:59:57.676Z,97248.16
2023-05-14T18:02:26.233Z,97246.53
2023-05-14T18:04:54.698Z,97251.06
2023-05-14T18:07:23.925Z,97251.72
2023-05-14T18:09:52.365Z,97256.28
2023-05-14T18:12:23.087Z,97257.75
2023-05-14T18:14:52.955Z,97261.66
2023-05-14T18:17:21.527Z,97251.91
2023-05-14T18:19:50.142Z,97262.63
2023-05-14T18:22:20.265Z,97255.63
2023-05-14T18:24:48.678Z,97252.53
2023-05-14T18:27:17.219Z,97249.44
2023-05-14T18:29:45.869Z,97250.25
2023-05-14T18:32:16.000Z,97248.00
2023-05-14T18:34:44.460Z,97245.72
2023-05-14T18:37:13.599Z,97247.66
2023-05-14T18:39:42.111Z,97248.94
2023-05-14T18:42:10.751Z,97256.09
2023-05-14T18:44:44.051Z,97250.56
2023-05-14T18:47:12.734Z,97258.53
2023-05-14T18:49:42.554Z,97262.56
2023-05-14T18:52:11.059Z,97264.19
2023-05-14T18:54:39.503Z,97259.47
2023-05-14T18:57:08.045Z,97266.28
2023-05-14T18:59:36.445Z,97267.09
2023-05-14T19:02:04.941Z,97265.97
2023-05-14T19:04:44.338Z,97265.63
2023-05-14T19:07:21.297Z,97265.16
2023-05-14T19:09:50.091Z,97270.66
2023-05-14T19:12:18.644Z,97275.53
2023-05-14T19:14:47.129Z,97273.09
2023-05-14T19:17:17.323Z,97273.91
2023-05-14T19:19:46.795Z,97281.84
2023-05-14T19:22:15.305Z,97281.84
2023-05-14T19:24:45.169Z,97280.41
2023-05-14T19:27:16.109Z,97284.63
2023-05-14T19:29:45.297Z,97288.19
2023-05-14T19:32:13.781Z,97286.88
2023-05-14T19:34:42.206Z,97288.84
2023-05-14T19:37:11.135Z,97284.47
2023-05-14T19:39:39.739Z,97295.81
2023-05-14T19:42:09.654Z,97304.91
2023-05-14T19:44:38.099Z,97300.53
2023-05-14T19:47:07.098Z,97309.59
2023-05-14T19:49:35.662Z,97309.94
2023-05-14T19:52:04.230Z,97307.16
2023-05-14T19:54:32.664Z,97309.13
2023-05-14T19:57:01.406Z,97305.06
2023-05-14T19:59:31.451Z,97306.69
2023-05-14T20:01:59.977Z,97310.56
2023-05-14T20:04:28.537Z,97313.34
2023-05-14T20:06:57.769Z,97300.69
2023-05-14T20:09:26.174Z,97309.75
2023-05-14T20:11:54.579Z,97306.19
2023-05-14T20:14:23.120Z,97312.84
2023-05-14T20:16:53.086Z,97316.41
2023-05-14T20:19:22.406Z,97312.84
2023-05-14T20:21:51.070Z,97307.34
2023-05-14T20:24:19.701Z,97313.66
2023-05-14T20:26:48.171Z,97309.59
2023-05-14T20:29:16.623Z,97312.38
2023-05-14T20:31:45.127Z,97311.22
2023-05-14T20:34:14.990Z,97304.09
2023-05-14T20:36:43.451Z,97307.97
2023-05-14T20:39:11.974Z,97307.19
2023-05-14T20:41:40.738Z,97310.25
2023-05-14T20:44:09.274Z,97299.22
2023-05-14T20:46:37.817Z,97303.94
2023-05-14T20:49:06.278Z,97292.09
2023-05-14T20:51:36.083Z,97292.09
2023-05-14T20:54:04.723Z,97292.09
2023-05-14T20:56:33.410Z,97292.75
2023-05-14T20:59:01.851Z,97292.25
2023-05-14T21:01:30.424Z,97291.59
2023-05-14T21:03:59.114Z,97292.75
2023-05-14T21:06:27.669Z,97288.38
2023-05-14T21:08:57.402Z,97291.13
2023-05-14T21:11:25.998Z,97298.59
2023-05-14T21:13:54.452Z,97293.41
2023-05-14T21:16:23.238Z,97298.91
2023-05-14T21:18:51.762Z,97291.81
2023-05-14T21:21:20.391Z,97290.19
2023-05-14T21:23:48.853Z,97289.03
2023-05-14T21:26:18.716Z,97291.00
2023-05-14T21:28:47.107Z,97292.94
2023-05-14T21:31:15.580Z,97290.19
2023-05-14T21:33:43.992Z,97298.44
2023-05-14T21:36:12.408Z,97294.88
2023-05-14T21:38:41.186Z,97297.16
2023-05-14T21:41:09.672Z,97297.97
2023-05-14T21:43:40.612Z,97297.16
2023-05-14T21:46:09.149Z,97292.44
2023-05-14T21:48:37.660Z,97289.22
2023-05-14T21:51:07.372Z,97297.16
2023-05-14T21:53:35.795Z,97295.53
2023-05-14T21:56:04.269Z,97297.47
2023-05-14T21:58:32.702Z,97298.28
2023-05-14T22:01:02.571Z,97291.16
2023-05-14T22:03:31.051Z,97289.22
2023-05-14T22:05:59.639Z,97284.50
2023-05-14T22:08:29.565Z,97282.06
2023-05-14T22:10:57.958Z,97283.69
2023-05-14T22:13:26.404Z,97275.75
2023-05-14T22:16:01.353Z,97280.94
2023-05-14T22:18:41.716Z,97282.06
2023-05-14T22:21:10.183Z,97282.06
2023-05-14T22:23:38.615Z,97281.59
2023-05-14T22:26:07.044Z,97278.84
2023-05-14T22:28:36.735Z,97280.47
2023-05-14T22:31:05.378Z,97267.81
2023-05-14T22:33:34.125Z,97278.03
2023-05-14T22:36:04.339Z,97279.66
2023-05-14T22:38:32.740Z,97270.88
2023-05-14T22:41:01.131Z,97271.69
2023-05-14T22:43:30.280Z,97275.09
2023-05-14T22:45:58.750Z,97274.47
2023-05-14T22:48:27.137Z,97275.59
2023-05-14T22:50:55.606Z,97275.59
2023-05-14T22:53:25.564Z,97264.56
2023-05-14T22:55:54.030Z,97270.09
2023-05-14T22:58:22.450Z,97264.56
2023-05-14T23:00:50.904Z,97258.25
2023-05-14T23:03:19.328Z,97260.19
2023-05-14T23:05:47.807Z,97251.94
2023-05-14T23:08:16.238Z,97254.69
2023-05-14T23:10:46.018Z,97252.72
2023-05-14T23:13:14.413Z,97255.81
2023-05-14T23:15:43.887Z,97262.47
2023-05-14T23:18:12.487Z,97261.31
2023-05-14T23:20:41.028Z,97266.84
2023-05-14T23:23:09.428Z,97266.03
2023-05-14T23:25:37.917Z,97263.28
2023-05-14T23:28:07.964Z,97254.19
2023-05-14T23:30:36.547Z,97250.31
2023-05-14T23:33:04.968Z,97250.31
2023-05-14T23:35:33.382Z,97243.97
2023-05-14T23:38:01.931Z,97236.84
2023-05-14T23:40:30.300Z,97233.78
2023-05-14T23:42:59.548Z,97242.38
2023-05-14T23:45:29.625Z,97236.03
2023-05-14T23:47:59.592Z,97234.09
2023-05-14T23:50:28.086Z,97217.06
2023-05-14T23:52:56.671Z,97227.78
2023-05-14T23:55:25.417Z,97228.91
2023-05-14T23:57:54.119Z,97230.03
